sensor_id;sensor_type;location;lat;lon;timestamp;pressure;altitude;pressure_sealevel;temperature;humidity
71194;BME280;58903;47.210;8.618;2022-09-19T00:01:34;94329.44;;;25.53;41.45
71194;BME280;58903;47.210;8.618;2022-09-19T00:04:06;94323.94;;;25.53;41.44
71194;BME280;58903;47.210;8.618;2022-09-19T00:06:43;94336.44;;;25.54;42.04
71194;BME280;58903;47.210;8.618;2022-09-19T00:09:14;94331.97;;;25.51;41.37
71194;BME280;58903;47.210;8.618;2022-09-19T00:11:52;94337.47;;;25.51;41.92
71194;BME280;58903;47.210;8.618;2022-09-19T00:14:27;94340.72;;;25.50;42.04
71194;BME280;58903;47.210;8.618;2022-09-19T00:16:57;94338.50;;;25.48;41.82
71194;BME280;58903;47.210;8.618;2022-09-19T00:19:23;94329.72;;;25.50;41.82
71194;BME280;58903;47.210;8.618;2022-09-19T00:22:19;94337.97;;;25.50;41.29
71194;BME280;58903;47.210;8.618;2022-09-19T00:24:47;94335.97;;;25.50;41.82
71194;BME280;58903;47.210;8.618;2022-09-19T00:27:24;94328.97;;;25.49;41.55
71194;BME280;58903;47.210;8.618;2022-09-19T00:29:53;94330.47;;;25.50;42.03
71194;BME280;58903;47.210;8.618;2022-09-19T00:32:23;94339.97;;;25.49;42.29
71194;BME280;58903;47.210;8.618;2022-09-19T00:34:50;94332.22;;;25.48;41.97
71194;BME280;58903;47.210;8.618;2022-09-19T00:37:19;94335.97;;;25.50;41.63
71194;BME280;58903;47.210;8.618;2022-09-19T00:39:52;94328.97;;;25.49;41.77
71194;BME280;58903;47.210;8.618;2022-09-19T00:42:24;94334.47;;;25.49;41.89
71194;BME280;58903;47.210;8.618;2022-09-19T00:45:14;94328.97;;;25.49;41.27
71194;BME280;58903;47.210;8.618;2022-09-19T00:47:51;94330.22;;;25.48;41.29
71194;BME280;58903;47.210;8.618;2022-09-19T00:50:52;94327.47;;;25.48;41.73
71194;BME280;58903;47.210;8.618;2022-09-19T00:53:26;94327.47;;;25.48;42.34
71194;BME280;58903;47.210;8.618;2022-09-19T00:55:54;94335.75;;;25.48;41.48
71194;BME280;58903;47.210;8.618;2022-09-19T00:58:40;94332.97;;;25.48;41.70
71194;BME280;58903;47.210;8.618;2022-09-19T01:01:24;94330.75;;;25.47;42.24
71194;BME280;58903;47.210;8.618;2022-09-19T01:04:00;94334.22;;;25.47;41.62
71194;BME280;58903;47.210;8.618;2022-09-19T01:09:35;94336.25;;;25.47;41.34
71194;BME280;58903;47.210;8.618;2022-09-19T01:18:07;94325.00;;;25.45;41.91
71194;BME280;58903;47.210;8.618;2022-09-19T01:21:06;94326.25;;;25.43;41.60
71194;BME280;58903;47.210;8.618;2022-09-19T01:29:53;94321.25;;;25.42;41.77
71194;BME280;58903;47.210;8.618;2022-09-19T01:32:27;94338.03;;;25.44;42.29
71194;BME280;58903;47.210;8.618;2022-09-19T01:34:59;94334.00;;;25.45;42.00
71194;BME280;58903;47.210;8.618;2022-09-19T01:37:37;94338.03;;;25.44;42.23
71194;BME280;58903;47.210;8.618;2022-09-19T01:40:25;94337.78;;;25.42;41.63
71194;BME280;58903;47.210;8.618;2022-09-19T01:43:01;94344.50;;;25.41;41.59
71194;BME280;58903;47.210;8.618;2022-09-19T01:45:34;94355.53;;;25.41;41.48
71194;BME280;58903;47.210;8.618;2022-09-19T01:48:10;94351.56;;;25.42;41.98
71194;BME280;58903;47.210;8.618;2022-09-19T01:59:03;94355.53;;;25.41;42.31
71194;BME280;58903;47.210;8.618;2022-09-19T02:04:43;94365.06;;;25.40;41.96
71194;BME280;58903;47.210;8.618;2022-09-19T02:07:22;94362.06;;;25.38;41.61
71194;BME280;58903;47.210;8.618;2022-09-19T02:10:30;94369.06;;;25.39;41.57
71194;BME280;58903;47.210;8.618;2022-09-19T02:13:06;94366.06;;;25.37;41.95
71194;BME280;58903;47.210;8.618;2022-09-19T02:15:38;94368.81;;;25.37;41.62
71194;BME280;58903;47.210;8.618;2022-09-19T02:18:21;94375.06;;;25.37;41.67
71194;BME280;58903;47.210;8.618;2022-09-19T02:20:58;94378.59;;;25.38;42.15
71194;BME280;58903;47.210;8.618;2022-09-19T02:23:38;94375.84;;;25.38;41.88
71194;BME280;58903;47.210;8.618;2022-09-19T02:26:08;94375.06;;;25.37;41.62
71194;BME280;58903;47.210;8.618;2022-09-19T02:28:54;94379.31;;;25.38;41.89
71194;BME280;58903;47.210;8.618;2022-09-19T02:31:31;94366.59;;;25.35;41.58
71194;BME280;58903;47.210;8.618;2022-09-19T02:34:06;94369.34;;;25.35;41.67
71194;BME280;58903;47.210;8.618;2022-09-19T02:36:43;94365.84;;;25.35;42.60
71194;BME280;58903;47.210;8.618;2022-09-19T02:39:20;94359.56;;;25.34;41.76
71194;BME280;58903;47.210;8.618;2022-09-19T02:42:00;94367.81;;;25.34;42.41
71194;BME280;58903;47.210;8.618;2022-09-19T02:50:26;94355.34;;;25.33;42.22
71194;BME280;58903;47.210;8.618;2022-09-19T02:52:56;94353.06;;;25.32;41.98
71194;BME280;58903;47.210;8.618;2022-09-19T02:55:30;94353.06;;;25.32;41.79
71194;BME280;58903;47.210;8.618;2022-09-19T02:58:06;94359.34;;;25.32;41.89
71194;BME280;58903;47.210;8.618;2022-09-19T03:00:37;94349.31;;;25.35;42.36
71194;BME280;58903;47.210;8.618;2022-09-19T03:03:20;94352.06;;;25.35;41.60
71194;BME280;58903;47.210;8.618;2022-09-19T03:06:09;94358.09;;;25.33;41.43
71194;BME280;58903;47.210;8.618;2022-09-19T03:08:49;94369.34;;;25.35;41.83
71194;BME280;58903;47.210;8.618;2022-09-19T03:11:20;94365.06;;;25.34;41.51
71194;BME280;58903;47.210;8.618;2022-09-19T03:13:55;94369.09;;;25.33;42.06
71194;BME280;58903;47.210;8.618;2022-09-19T03:16:33;94369.09;;;25.33;42.16
71194;BME280;58903;47.210;8.618;2022-09-19T03:19:08;94367.06;;;25.34;41.99
71194;BME280;58903;47.210;8.618;2022-09-19T03:21:36;94371.84;;;25.33;42.26
71194;BME280;58903;47.210;8.618;2022-09-19T03:24:05;94371.09;;;25.33;41.93
71194;BME280;58903;47.210;8.618;2022-09-19T03:26:41;94364.59;;;25.30;41.53
71194;BME280;58903;47.210;8.618;2022-09-19T03:29:11;94371.84;;;25.33;42.30
71194;BME280;58903;47.210;8.618;2022-09-19T03:31:37;94365.59;;;25.33;42.40
71194;BME280;58903;47.210;8.618;2022-09-19T03:34:05;94369.59;;;25.32;41.48
71194;BME280;58903;47.210;8.618;2022-09-19T03:36:33;94369.59;;;25.32;41.89
71194;BME280;58903;47.210;8.618;2022-09-19T03:39:00;94363.34;;;25.31;41.93
71194;BME280;58903;47.210;8.618;2022-09-19T03:41:29;94361.34;;;25.32;41.55
71194;BME280;58903;47.210;8.618;2022-09-19T03:44:04;94363.59;;;25.33;41.44
71194;BME280;58903;47.210;8.618;2022-09-19T03:46:31;94369.59;;;25.32;41.69
71194;BME280;58903;47.210;8.618;2022-09-19T03:49:00;94363.84;;;25.30;41.55
71194;BME280;58903;47.210;8.618;2022-09-19T03:51:37;94379.13;;;25.31;41.37
71194;BME280;58903;47.210;8.618;2022-09-19T03:54:08;94373.63;;;25.31;41.86
71194;BME280;58903;47.210;8.618;2022-09-19T03:56:46;94385.38;;;25.31;42.58
71194;BME280;58903;47.210;8.618;2022-09-19T03:59:12;94386.63;;;25.30;41.66
71194;BME280;58903;47.210;8.618;2022-09-19T04:01:40;94391.13;;;25.28;41.68
71194;BME280;58903;47.210;8.618;2022-09-19T04:04:13;94385.88;;;25.30;42.12
71194;BME280;58903;47.210;8.618;2022-09-19T04:07:10;94399.63;;;25.30;41.84
71194;BME280;58903;47.210;8.618;2022-09-19T04:09:37;94400.66;;;25.27;42.00
71194;BME280;58903;47.210;8.618;2022-09-19T04:12:04;94401.16;;;25.25;42.19
71194;BME280;58903;47.210;8.618;2022-09-19T04:14:40;94403.91;;;25.25;42.42
71194;BME280;58903;47.210;8.618;2022-09-19T04:17:08;94394.94;;;25.25;41.85
71194;BME280;58903;47.210;8.618;2022-09-19T04:19:46;94403.91;;;25.25;41.43
71194;BME280;58903;47.210;8.618;2022-09-19T04:22:21;94401.16;;;25.25;41.59
71194;BME280;58903;47.210;8.618;2022-09-19T04:24:48;94403.19;;;25.25;41.71
71194;BME280;58903;47.210;8.618;2022-09-19T04:27:17;94403.66;;;25.23;41.94
71194;BME280;58903;47.210;8.618;2022-09-19T04:29:43;94407.19;;;25.24;41.88
71194;BME280;58903;47.210;8.618;2022-09-19T04:32:10;94410.16;;;25.26;41.45
71194;BME280;58903;47.210;8.618;2022-09-19T04:34:36;94401.41;;;25.27;41.70
71194;BME280;58903;47.210;8.618;2022-09-19T04:37:04;94408.94;;;25.27;41.45
71194;BME280;58903;47.210;8.618;2022-09-19T04:39:34;94400.44;;;25.25;44.81
71194;BME280;58903;47.210;8.618;2022-09-19T04:42:04;94409.69;;;25.22;45.64
71194;BME280;58903;47.210;8.618;2022-09-19T04:44:31;94415.44;;;25.24;42.73
71194;BME280;58903;47.210;8.618;2022-09-19T04:47:04;94414.69;;;25.23;42.56
71194;BME280;58903;47.210;8.618;2022-09-19T04:49:37;94423.69;;;25.24;42.61
71194;BME280;58903;47.210;8.618;2022-09-19T04:52:19;94424.69;;;25.21;41.85
71194;BME280;58903;47.210;8.618;2022-09-19T04:54:49;94429.72;;;25.22;42.29
71194;BME280;58903;47.210;8.618;2022-09-19T04:57:21;94420.97;;;25.18;42.03
71194;BME280;58903;47.210;8.618;2022-09-19T04:59:55;94429.00;;;25.16;42.46
71194;BME280;58903;47.210;8.618;2022-09-19T05:02:21;94430.47;;;25.17;43.42
71194;BME280;58903;47.210;8.618;2022-09-19T05:04:48;94432.72;;;25.19;42.66
71194;BME280;58903;47.210;8.618;2022-09-19T05:07:14;94432.00;;;25.18;42.67
71194;BME280;58903;47.210;8.618;2022-09-19T05:09:43;94438.47;;;25.21;42.08
71194;BME280;58903;47.210;8.618;2022-09-19T05:12:21;94439.50;;;25.18;42.35
71194;BME280;58903;47.210;8.618;2022-09-19T05:14:48;94442.75;;;25.16;43.25
71194;BME280;58903;47.210;8.618;2022-09-19T05:17:24;94442.25;;;25.18;42.43
71194;BME280;58903;47.210;8.618;2022-09-19T05:19:53;94453.25;;;25.18;42.93
71194;BME280;58903;47.210;8.618;2022-09-19T05:22:21;94443.50;;;25.17;41.88
71194;BME280;58903;47.210;8.618;2022-09-19T05:24:49;94458.25;;;25.19;41.63
71194;BME280;58903;47.210;8.618;2022-09-19T05:27:31;94456.75;;;25.18;41.76
71194;BME280;58903;47.210;8.618;2022-09-19T05:30:10;94460.25;;;25.19;41.37
71194;BME280;58903;47.210;8.618;2022-09-19T05:32:37;94459.50;;;25.18;41.53
71194;BME280;58903;47.210;8.618;2022-09-19T05:35:11;94466.50;;;25.19;41.60
71194;BME280;58903;47.210;8.618;2022-09-19T05:37:41;94463.25;;;25.21;40.89
71194;BME280;58903;47.210;8.618;2022-09-19T05:40:08;94472.00;;;25.19;40.60
71194;BME280;58903;47.210;8.618;2022-09-19T05:42:48;94469.00;;;25.17;40.95
71194;BME280;58903;47.210;8.618;2022-09-19T05:45:26;94476.75;;;25.19;40.33
71194;BME280;58903;47.210;8.618;2022-09-19T05:48:05;94470.53;;;25.18;41.38
71194;BME280;58903;47.210;8.618;2022-09-19T05:50:34;94474.28;;;25.15;41.57
71194;BME280;58903;47.210;8.618;2022-09-19T05:53:05;94478.31;;;25.09;42.22
71194;BME280;58903;47.210;8.618;2022-09-19T05:55:51;94487.31;;;25.09;41.97
71194;BME280;58903;47.210;8.618;2022-09-19T05:58:18;94489.78;;;25.13;41.58
71194;BME280;58903;47.210;8.618;2022-09-19T06:00:55;94492.03;;;25.14;41.40
71194;BME280;58903;47.210;8.618;2022-09-19T06:03:22;94486.53;;;25.14;41.37
71194;BME280;58903;47.210;8.618;2022-09-19T06:05:51;94493.31;;;25.13;41.06
71194;BME280;58903;47.210;8.618;2022-09-19T06:08:19;94497.53;;;25.14;41.34
71194;BME280;58903;47.210;8.618;2022-09-19T06:10:50;94501.03;;;25.15;41.78
71194;BME280;58903;47.210;8.618;2022-09-19T06:13:22;94494.06;;;25.14;40.67
71194;BME280;58903;47.210;8.618;2022-09-19T06:15:50;94503.81;;;25.15;41.06
71194;BME280;58903;47.210;8.618;2022-09-19T06:18:21;94494.31;;;25.16;40.95
71194;BME280;58903;47.210;8.618;2022-09-19T06:20:58;94495.78;;;25.17;41.59
71194;BME280;58903;47.210;8.618;2022-09-19T06:23:33;94495.78;;;25.17;41.29
71194;BME280;58903;47.210;8.618;2022-09-19T06:26:03;94502.81;;;25.18;41.86
71194;BME280;58903;47.210;8.618;2022-09-19T06:28:31;94497.28;;;25.18;41.17
71194;BME280;58903;47.210;8.618;2022-09-19T06:31:01;94497.28;;;25.18;41.63
71194;BME280;58903;47.210;8.618;2022-09-19T06:33:36;94500.81;;;25.18;41.28
71194;BME280;58903;47.210;8.618;2022-09-19T06:36:08;94500.28;;;25.20;41.04
71194;BME280;58903;47.210;8.618;2022-09-19T06:38:34;94502.53;;;25.21;41.26
71194;BME280;58903;47.210;8.618;2022-09-19T06:41:06;94502.81;;;25.18;41.98
71194;BME280;58903;47.210;8.618;2022-09-19T06:43:41;94519.03;;;25.21;41.36
71194;BME280;58903;47.210;8.618;2022-09-19T06:46:08;94501.28;;;25.17;41.50
71194;BME280;58903;47.210;8.618;2022-09-19T06:48:35;94519.31;;;25.18;41.98
71194;BME280;58903;47.210;8.618;2022-09-19T06:51:04;94521.81;;;25.16;41.30
71194;BME280;58903;47.210;8.618;2022-09-19T06:53:36;94522.31;;;25.14;41.93
71194;BME280;58903;47.210;8.618;2022-09-19T06:56:04;94521.81;;;25.16;41.47
71194;BME280;58903;47.210;8.618;2022-09-19T06:58:37;94529.06;;;25.19;41.53
71194;BME280;58903;47.210;8.618;2022-09-19T07:01:05;94530.56;;;25.20;41.30
71194;BME280;58903;47.210;8.618;2022-09-19T07:03:34;94527.81;;;25.20;41.84
71194;BME280;58903;47.210;8.618;2022-09-19T07:06:00;94541.34;;;25.18;41.43
71194;BME280;58903;47.210;8.618;2022-09-19T07:08:29;94549.34;;;25.16;42.45
71194;BME280;58903;47.210;8.618;2022-09-19T07:10:57;94550.59;;;25.15;42.41
71194;BME280;58903;47.210;8.618;2022-09-19T07:13:25;94557.38;;;25.14;41.97
71194;BME280;58903;47.210;8.618;2022-09-19T07:16:00;94558.84;;;25.15;41.71
71194;BME280;58903;47.210;8.618;2022-09-19T07:18:38;94555.09;;;25.12;41.72
71194;BME280;58903;47.210;8.618;2022-09-19T07:21:06;94554.38;;;25.12;42.47
71194;BME280;58903;47.210;8.618;2022-09-19T07:23:33;94553.63;;;25.11;42.48
71194;BME280;58903;47.210;8.618;2022-09-19T07:25:59;94557.88;;;25.07;41.95
71194;BME280;58903;47.210;8.618;2022-09-19T07:28:26;94564.13;;;25.07;41.86
71194;BME280;58903;47.210;8.618;2022-09-19T07:31:01;94565.63;;;25.08;41.99
71194;BME280;58903;47.210;8.618;2022-09-19T07:33:27;94564.13;;;25.07;42.31
71194;BME280;58903;47.210;8.618;2022-09-19T07:35:57;94564.63;;;25.06;42.19
71194;BME280;58903;47.210;8.618;2022-09-19T07:38:24;94574.38;;;25.07;42.56
71194;BME280;58903;47.210;8.618;2022-09-19T07:40:54;94572.63;;;25.09;42.13
71194;BME280;58903;47.210;8.618;2022-09-19T07:43:29;94578.13;;;25.09;42.57
71194;BME280;58903;47.210;8.618;2022-09-19T07:45:59;94578.13;;;25.09;41.98
71194;BME280;58903;47.210;8.618;2022-09-19T07:48:25;94580.66;;;25.07;42.70
71194;BME280;58903;47.210;8.618;2022-09-19T07:50:56;94577.66;;;25.05;41.93
71194;BME280;58903;47.210;8.618;2022-09-19T07:53:24;94592.13;;;25.06;42.54
71194;BME280;58903;47.210;8.618;2022-09-19T07:55:57;94589.38;;;25.06;42.33
71194;BME280;58903;47.210;8.618;2022-09-19T07:58:25;94588.38;;;25.09;42.16
71194;BME280;58903;47.210;8.618;2022-09-19T08:00:57;94585.13;;;25.10;42.54
71194;BME280;58903;47.210;8.618;2022-09-19T08:03:35;94590.63;;;25.10;42.31
71194;BME280;58903;47.210;8.618;2022-09-19T08:06:28;94597.41;;;25.09;42.61
71194;BME280;58903;47.210;8.618;2022-09-19T08:08:54;94604.16;;;25.08;41.79
71194;BME280;58903;47.210;8.618;2022-09-19T08:11:20;94597.16;;;25.07;42.71
71194;BME280;58903;47.210;8.618;2022-09-19T08:13:47;94603.38;;;25.08;42.50
71194;BME280;58903;47.210;8.618;2022-09-19T08:16:13;94603.16;;;25.06;42.28
71194;BME280;58903;47.210;8.618;2022-09-19T08:18:45;94605.91;;;25.06;41.96
71194;BME280;58903;47.210;8.618;2022-09-19T08:21:44;94613.91;;;25.09;41.91
71194;BME280;58903;47.210;8.618;2022-09-19T08:24:21;94614.41;;;25.08;42.59
71194;BME280;58903;47.210;8.618;2022-09-19T08:26:53;94611.16;;;25.09;42.99
71194;BME280;58903;47.210;8.618;2022-09-19T08:29:30;94606.66;;;25.06;42.49
71194;BME280;58903;47.210;8.618;2022-09-19T08:32:10;94618.16;;;25.05;42.36
71194;BME280;58903;47.210;8.618;2022-09-19T08:34:37;94620.94;;;25.05;42.91
71194;BME280;58903;47.210;8.618;2022-09-19T08:37:03;94616.66;;;25.04;42.37
71194;BME280;58903;47.210;8.618;2022-09-19T08:39:29;94618.69;;;25.03;42.75
71194;BME280;58903;47.210;8.618;2022-09-19T08:42:07;94620.94;;;25.05;42.41
71194;BME280;58903;47.210;8.618;2022-09-19T08:47:21;94614.41;;;25.02;42.59
71194;BME280;58903;47.210;8.618;2022-09-19T08:50:19;94622.16;;;25.04;43.21
71194;BME280;58903;47.210;8.618;2022-09-19T08:52:57;94613.91;;;25.04;42.88
71194;BME280;58903;47.210;8.618;2022-09-19T08:55:32;94621.91;;;25.02;43.03
71194;BME280;58903;47.210;8.618;2022-09-19T08:58:07;94620.16;;;25.04;43.15
71194;BME280;58903;47.210;8.618;2022-09-19T09:00:44;94622.16;;;25.04;42.81
71194;BME280;58903;47.210;8.618;2022-09-19T09:03:24;94622.16;;;25.04;43.08
71194;BME280;58903;47.210;8.618;2022-09-19T09:25:46;94624.91;;;25.04;42.53
71194;BME280;58903;47.210;8.618;2022-09-19T09:31:16;94615.94;;;25.03;43.06
71194;BME280;58903;47.210;8.618;2022-09-19T09:33:54;94622.16;;;25.04;42.89
71194;BME280;58903;47.210;8.618;2022-09-19T09:36:31;94620.16;;;25.04;42.72
71194;BME280;58903;47.210;8.618;2022-09-19T09:42:05;94623.16;;;25.06;42.68
71194;BME280;58903;47.210;8.618;2022-09-19T09:45:34;94620.66;;;25.08;42.99
71194;BME280;58903;47.210;8.618;2022-09-19T09:48:39;94622.19;;;25.09;42.55
71194;BME280;58903;47.210;8.618;2022-09-19T09:51:38;94618.91;;;25.11;42.42
71194;BME280;58903;47.210;8.618;2022-09-19T10:00:08;94615.91;;;25.09;42.61
71194;BME280;58903;47.210;8.618;2022-09-19T10:06:12;94608.66;;;25.11;43.40
71194;BME280;58903;47.210;8.618;2022-09-19T10:08:50;94611.91;;;25.10;42.28
71194;BME280;58903;47.210;8.618;2022-09-19T10:11:58;94614.91;;;25.12;43.17
71194;BME280;58903;47.210;8.618;2022-09-19T10:14:38;94608.16;;;25.13;42.78
71194;BME280;58903;47.210;8.618;2022-09-19T10:17:07;94619.91;;;25.13;42.63
71194;BME280;58903;47.210;8.618;2022-09-19T10:19:39;94618.16;;;25.10;43.04
71194;BME280;58903;47.210;8.618;2022-09-19T10:22:10;94614.16;;;25.11;42.78
71194;BME280;58903;47.210;8.618;2022-09-19T10:30:18;94605.91;;;25.11;43.05
71194;BME280;58903;47.210;8.618;2022-09-19T10:32:47;94621.16;;;25.12;42.75
71194;BME280;58903;47.210;8.618;2022-09-19T10:37:59;94607.91;;;25.11;42.87
71194;BME280;58903;47.210;8.618;2022-09-19T10:40:29;94607.91;;;25.11;42.93
71194;BME280;58903;47.210;8.618;2022-09-19T10:42:59;94609.41;;;25.12;42.80
71194;BME280;58903;47.210;8.618;2022-09-19T10:45:30;94599.88;;;25.13;42.94
71194;BME280;58903;47.210;8.618;2022-09-19T10:48:16;94602.13;;;25.14;43.02
71194;BME280;58903;47.210;8.618;2022-09-19T10:50:46;94603.66;;;25.15;42.66
71194;BME280;58903;47.210;8.618;2022-09-19T10:53:31;94600.38;;;25.17;43.00
71194;BME280;58903;47.210;8.618;2022-09-19T10:56:08;94600.38;;;25.17;42.57
71194;BME280;58903;47.210;8.618;2022-09-19T10:59:05;94595.13;;;25.19;42.48
71194;BME280;58903;47.210;8.618;2022-09-19T11:01:34;94600.88;;;25.21;42.06
71194;BME280;58903;47.210;8.618;2022-09-19T11:04:24;94596.63;;;25.20;41.99
71194;BME280;58903;47.210;8.618;2022-09-19T11:07:32;94592.63;;;25.21;42.58
71194;BME280;58903;47.210;8.618;2022-09-19T11:10:00;94596.13;;;25.21;42.44
71194;BME280;58903;47.210;8.618;2022-09-19T11:12:41;94591.38;;;25.22;42.80
71194;BME280;58903;47.210;8.618;2022-09-19T11:15:12;94594.38;;;25.24;42.16
71194;BME280;58903;47.210;8.618;2022-09-19T11:18:12;94594.38;;;25.24;42.08
71194;BME280;58903;47.210;8.618;2022-09-19T11:21:12;94602.63;;;25.24;42.94
71194;BME280;58903;47.210;8.618;2022-09-19T11:32:38;94600.38;;;25.28;42.83
71194;BME280;58903;47.210;8.618;2022-09-19T11:35:23;94600.38;;;25.28;42.46
71194;BME280;58903;47.210;8.618;2022-09-19T12:10:39;94579.09;;;25.28;42.43
71194;BME280;58903;47.210;8.618;2022-09-19T12:15:57;94581.59;;;25.32;42.23
71194;BME280;58903;47.210;8.618;2022-09-19T12:18:32;94575.06;;;25.29;42.56
71194;BME280;58903;47.210;8.618;2022-09-19T12:21:03;94572.84;;;25.33;42.96
71194;BME280;58903;47.210;8.618;2022-09-19T12:23:49;94578.59;;;25.35;42.67
71194;BME280;58903;47.210;8.618;2022-09-19T12:26:58;94573.31;;;25.37;42.27
71194;BME280;58903;47.210;8.618;2022-09-19T12:32:24;94563.31;;;25.40;42.40
71194;BME280;58903;47.210;8.618;2022-09-19T12:35:16;94556.28;;;25.39;43.31
71194;BME280;58903;47.210;8.618;2022-09-19T12:38:00;94552.06;;;25.38;42.50
71194;BME280;58903;47.210;8.618;2022-09-19T12:40:52;94548.53;;;25.37;43.00
71194;BME280;58903;47.210;8.618;2022-09-19T12:54:35;94535.25;;;25.47;43.33
71194;BME280;58903;47.210;8.618;2022-09-19T12:57:27;94535.25;;;25.47;42.65
71194;BME280;58903;47.210;8.618;2022-09-19T13:00:07;94535.00;;;25.51;42.63
71194;BME280;58903;47.210;8.618;2022-09-19T13:02:59;94536.50;;;25.52;42.93
71194;BME280;58903;47.210;8.618;2022-09-19T13:05:38;94533.00;;;25.51;43.50
71194;BME280;58903;47.210;8.618;2022-09-19T13:11:12;94531.72;;;25.58;43.26
71194;BME280;58903;47.210;8.618;2022-09-19T13:14:18;94528.97;;;25.58;43.29
71194;BME280;58903;47.210;8.618;2022-09-19T13:16:49;94526.22;;;25.58;43.60
71194;BME280;58903;47.210;8.618;2022-09-19T13:19:40;94526.47;;;25.60;43.33
71194;BME280;58903;47.210;8.618;2022-09-19T13:22:46;94526.19;;;25.63;42.99
71194;BME280;58903;47.210;8.618;2022-09-19T13:28:56;94521.19;;;25.62;43.70
71194;BME280;58903;47.210;8.618;2022-09-19T13:42:42;94517.88;;;25.74;43.06
71194;BME280;58903;47.210;8.618;2022-09-19T13:45:34;94519.34;;;25.75;43.25
71194;BME280;58903;47.210;8.618;2022-09-19T14:02:00;94522.28;;;25.88;43.47
71194;BME280;58903;47.210;8.618;2022-09-19T14:04:57;94530.31;;;25.92;43.60
71194;BME280;58903;47.210;8.618;2022-09-19T14:16:08;94503.16;;;26.01;43.64
71194;BME280;58903;47.210;8.618;2022-09-19T14:18:52;94510.44;;;26.04;43.18
71194;BME280;58903;47.210;8.618;2022-09-19T14:24:13;94502.66;;;26.08;43.92
71194;BME280;58903;47.210;8.618;2022-09-19T14:35:46;94511.84;;;26.22;43.69
71194;BME280;58903;47.210;8.618;2022-09-19T14:41:14;94504.81;;;26.27;42.81
71194;BME280;58903;47.210;8.618;2022-09-19T14:44:17;94505.28;;;26.31;42.85
71194;BME280;58903;47.210;8.618;2022-09-19T14:47:33;94507.72;;;26.34;43.65
71194;BME280;58903;47.210;8.618;2022-09-19T14:50:15;94502.44;;;26.36;43.24
71194;BME280;58903;47.210;8.618;2022-09-19T14:53:11;94513.22;;;26.40;42.82
71194;BME280;58903;47.210;8.618;2022-09-19T14:55:50;94504.94;;;26.40;42.67
71194;BME280;58903;47.210;8.618;2022-09-19T14:58:25;94507.41;;;26.43;42.37
71194;BME280;58903;47.210;8.618;2022-09-19T15:06:32;94505.34;;;26.49;43.00
71194;BME280;58903;47.210;8.618;2022-09-19T15:15:54;94496.00;;;26.58;43.01
71194;BME280;58903;47.210;8.618;2022-09-19T15:18:38;94490.22;;;26.61;42.90
71194;BME280;58903;47.210;8.618;2022-09-19T15:21:30;94493.97;;;26.64;42.86
71194;BME280;58903;47.210;8.618;2022-09-19T15:24:27;94490.91;;;26.67;42.40
71194;BME280;58903;47.210;8.618;2022-09-19T15:26:57;94486.16;;;26.68;42.48
71194;BME280;58903;47.210;8.618;2022-09-19T15:29:27;94484.59;;;26.72;43.07
71194;BME280;58903;47.210;8.618;2022-09-19T15:32:11;94487.63;;;26.74;42.75
71194;BME280;58903;47.210;8.618;2022-09-19T15:34:39;94491.88;;;26.75;43.47
71194;BME280;58903;47.210;8.618;2022-09-19T15:37:13;94498.38;;;26.78;43.36
71194;BME280;58903;47.210;8.618;2022-09-19T15:39:41;94506.88;;;26.80;42.78
71194;BME280;58903;47.210;8.618;2022-09-19T15:42:31;94503.09;;;26.83;42.76
71194;BME280;58903;47.210;8.618;2022-09-19T15:44:58;94501.81;;;26.84;42.84
71194;BME280;58903;47.210;8.618;2022-09-19T15:47:30;94500.78;;;26.87;43.02
71194;BME280;58903;47.210;8.618;2022-09-19T15:50:00;94505.56;;;26.86;42.94
71194;BME280;58903;47.210;8.618;2022-09-19T15:52:32;94510.81;;;26.90;43.40
71194;BME280;58903;47.210;8.618;2022-09-19T15:55:21;94506.03;;;26.90;42.66
71194;BME280;58903;47.210;8.618;2022-09-19T15:57:51;94512.28;;;26.91;43.18
71194;BME280;58903;47.210;8.618;2022-09-19T16:02:48;94510.53;;;26.94;42.56
71194;BME280;58903;47.210;8.618;2022-09-19T16:05:22;94514.25;;;26.96;42.88
71194;BME280;58903;47.210;8.618;2022-09-19T16:07:55;94515.75;;;26.97;42.98
71194;BME280;58903;47.210;8.618;2022-09-19T16:10:43;94513.97;;;27.00;42.79
71194;BME280;58903;47.210;8.618;2022-09-19T16:13:38;94512.94;;;27.03;42.38
71194;BME280;58903;47.210;8.618;2022-09-19T16:16:45;94513.69;;;27.03;42.84
71194;BME280;58903;47.210;8.618;2022-09-19T16:19:21;94509.88;;;27.06;42.68
71194;BME280;58903;47.210;8.618;2022-09-19T16:21:55;94512.66;;;27.06;42.83
71194;BME280;58903;47.210;8.618;2022-09-19T16:24:40;94523.91;;;27.08;42.60
71194;BME280;58903;47.210;8.618;2022-09-19T16:27:08;94518.63;;;27.10;42.65
71194;BME280;58903;47.210;8.618;2022-09-19T16:29:45;94509.84;;;27.12;42.92
71194;BME280;58903;47.210;8.618;2022-09-19T16:32:19;94519.09;;;27.14;42.64
71194;BME280;58903;47.210;8.618;2022-09-19T16:34:51;94520.59;;;27.15;42.24
71194;BME280;58903;47.210;8.618;2022-09-19T16:37:39;94520.59;;;27.15;42.34
71194;BME280;58903;47.210;8.618;2022-09-19T16:42:48;94508.56;;;27.13;42.33
71194;BME280;58903;47.210;8.618;2022-09-19T16:45:37;94517.81;;;27.15;42.57
71194;BME280;58903;47.210;8.618;2022-09-19T16:48:07;94524.63;;;27.14;41.80
71194;BME280;58903;47.210;8.618;2022-09-19T16:50:40;94522.38;;;27.13;41.99
71194;BME280;58903;47.210;8.618;2022-09-19T16:53:13;94527.13;;;27.12;42.57
71194;BME280;58903;47.210;8.618;2022-09-19T16:55:41;94534.69;;;27.12;42.03
71194;BME280;58903;47.210;8.618;2022-09-19T16:58:11;94533.19;;;27.11;42.49
71194;BME280;58903;47.210;8.618;2022-09-19T17:00:49;94533.72;;;27.09;42.10
71194;BME280;58903;47.210;8.618;2022-09-19T17:03:22;94530.19;;;27.09;42.21
71194;BME280;58903;47.210;8.618;2022-09-19T17:05:59;94534.72;;;27.06;42.23
71194;BME280;58903;47.210;8.618;2022-09-19T17:08:31;94539.78;;;27.02;42.37
71194;BME280;58903;47.210;8.618;2022-09-19T17:10:57;94536.81;;;27.00;42.65
71194;BME280;58903;47.210;8.618;2022-09-19T17:13:23;94542.63;;;26.97;41.95
71194;BME280;58903;47.210;8.618;2022-09-19T17:15:50;94540.34;;;26.95;42.67